createdAt,value
2022-11-23T00:00:16.314Z,9.98
2022-11-23T00:03:01.888Z,10.65
2022-11-23T00:05:47.490Z,10.85
2022-11-23T00:08:33.195Z,10.23
2022-11-23T00:11:20.497Z,9.93
2022-11-23T00:14:05.614Z,10.23
2022-11-23T00:16:51.061Z,9.68
2022-11-23T00:19:36.602Z,9.43
2022-11-23T00:22:22.088Z,10.50
2022-11-23T00:25:07.812Z,9.52
2022-11-23T00:27:53.406Z,9.45
2022-11-23T00:30:38.719Z,9.98
2022-11-23T00:33:24.363Z,9.52
2022-11-23T00:36:14.794Z,9.50
2022-11-23T00:39:00.531Z,9.85
2022-11-23T00:41:45.790Z,10.05
2022-11-23T00:44:31.400Z,10.23
2022-11-23T00:47:16.775Z,10.02
2022-11-23T00:50:03.138Z,10.48
2022-11-23T00:52:48.446Z,10.10
2022-11-23T00:55:33.821Z,10.57
2022-11-23T00:58:19.413Z,9.90
2022-11-23T01:01:10.643Z,10.75
2022-11-23T01:03:58.291Z,9.77
2022-11-23T01:06:47.498Z,10.30
2022-11-23T01:09:34.430Z,9.93
2022-11-23T01:12:20.073Z,10.35
2022-11-23T01:15:06.378Z,9.75
2022-11-23T01:17:52.126Z,10.43
2022-11-23T01:20:37.451Z,9.65
2022-11-23T01:23:23.070Z,10.63
2022-11-23T01:26:10.522Z,10.90
2022-11-23T01:28:55.866Z,11.52
2022-11-23T01:31:46.418Z,11.50
2022-11-23T01:34:35.384Z,11.60
2022-11-23T01:37:20.981Z,12.20
2022-11-23T01:40:07.146Z,11.50
2022-11-23T01:42:56.175Z,12.15
2022-11-23T01:45:45.391Z,12.18
2022-11-23T01:48:45.660Z,12.52
2022-11-23T01:51:41.088Z,11.73
2022-11-23T01:54:35.909Z,12.93
2022-11-23T01:57:31.659Z,12.52
2022-11-23T02:00:19.171Z,12.88
2022-11-23T02:03:06.360Z,15.07
2022-11-23T02:05:59.958Z,13.90
2022-11-23T02:08:46.383Z,13.27
2022-11-23T02:11:31.805Z,13.90
2022-11-23T02:14:22.043Z,14.40
2022-11-23T02:17:08.988Z,14.27
2022-11-23T02:20:13.315Z,13.73
2022-11-23T02:23:34.345Z,13.35
2022-11-23T02:26:24.276Z,13.40
2022-11-23T02:29:23.617Z,12.98
2022-11-23T02:32:09.556Z,12.60
2022-11-23T02:34:54.992Z,12.00
2022-11-23T02:37:42.877Z,12.07
2022-11-23T02:40:35.430Z,12.30
2022-11-23T02:43:20.879Z,12.73
2022-11-23T02:46:06.991Z,12.95
2022-11-23T02:48:52.151Z,12.57
2022-11-23T02:51:38.138Z,12.77
2022-11-23T02:54:23.701Z,11.68
2022-11-23T02:57:10.604Z,11.95
2022-11-23T02:59:57.205Z,11.68
2022-11-23T03:02:43.100Z,10.57
2022-11-23T03:05:30.924Z,10.55
2022-11-23T03:08:16.520Z,11.13
2022-11-23T03:11:02.299Z,10.23
2022-11-23T03:13:49.161Z,9.45
2022-11-23T03:16:38.744Z,8.85
2022-11-23T03:19:25.510Z,9.43
2022-11-23T03:22:11.829Z,9.05
2022-11-23T03:24:57.497Z,8.48
2022-11-23T03:27:43.135Z,8.75
2022-11-23T03:30:28.429Z,8.90
2022-11-23T03:33:13.884Z,8.90
2022-11-23T03:35:59.303Z,8.15
2022-11-23T03:38:48.443Z,8.60
2022-11-23T03:41:52.793Z,8.60
2022-11-23T03:44:40.556Z,8.98
2022-11-23T03:47:25.844Z,9.80
2022-11-23T03:50:12.541Z,9.30
2022-11-23T03:52:57.814Z,8.80
2022-11-23T03:55:46.685Z,8.63
2022-11-23T03:58:32.871Z,8.32
2022-11-23T04:01:19.377Z,8.82
2022-11-23T04:04:09.826Z,8.88
2022-11-23T04:07:16.020Z,8.30
2022-11-23T04:10:08.526Z,9.18
2022-11-23T04:13:13.547Z,9.18
2022-11-23T04:15:59.402Z,9.25
2022-11-23T04:18:44.680Z,9.90
2022-11-23T04:21:30.575Z,10.95
2022-11-23T04:24:16.844Z,11.23
2022-11-23T04:27:02.709Z,11.40
2022-11-23T04:29:48.035Z,12.48
2022-11-23T04:32:33.476Z,12.93
2022-11-23T04:35:19.608Z,13.35
2022-11-23T04:38:07.903Z,14.02
2022-11-23T04:40:54.199Z,14.48
2022-11-23T04:43:39.649Z,13.80
2022-11-23T04:46:25.652Z,14.23
2022-11-23T04:49:10.968Z,13.75
2022-11-23T04:51:56.932Z,13.35
2022-11-23T04:54:48.903Z,12.98
2022-11-23T04:57:34.502Z,12.55
2022-11-23T05:00:20.112Z,11.57
2022-11-23T05:03:06.530Z,11.60
2022-11-23T05:05:53.988Z,10.77
2022-11-23T05:08:39.693Z,10.75
2022-11-23T05:11:40.681Z,9.90
2022-11-23T05:14:27.471Z,10.98
2022-11-23T05:17:13.048Z,10.15
2022-11-23T05:20:00.157Z,10.05
2022-11-23T05:22:47.927Z,10.20
2022-11-23T05:25:36.760Z,10.45
2022-11-23T05:28:40.344Z,10.07
2022-11-23T05:31:26.671Z,10.60
2022-11-23T05:34:12.200Z,9.85
2022-11-23T05:37:04.385Z,10.48
2022-11-23T05:39:50.096Z,10.30
2022-11-23T05:42:36.480Z,9.85
2022-11-23T05:45:29.594Z,10.13
2022-11-23T05:48:16.543Z,9.70
2022-11-23T05:51:09.924Z,10.35
2022-11-23T05:54:01.058Z,9.55
2022-11-23T05:57:06.947Z,9.90
2022-11-23T05:59:57.847Z,9.32
2022-11-23T06:03:01.452Z,9.63
2022-11-23T06:05:49.437Z,9.37
2022-11-23T06:08:39.244Z,9.30
2022-11-23T06:11:25.266Z,9.40
2022-11-23T06:14:14.372Z,9.55
2022-11-23T06:17:02.356Z,9.10
2022-11-23T06:22:41.355Z,9.80
2022-11-23T06:25:27.485Z,9.20
2022-11-23T06:28:24.599Z,9.60
2022-11-23T06:31:12.304Z,9.48
2022-11-23T06:33:57.765Z,9.25
2022-11-23T06:36:43.350Z,10.02
2022-11-23T06:39:29.055Z,9.32
2022-11-23T06:42:37.640Z,8.75
2022-11-23T06:45:21.805Z,9.77
2022-11-23T06:48:10.948Z,8.20
2022-11-23T06:51:01.870Z,8.57
2022-11-23T06:53:49.219Z,8.52
2022-11-23T06:56:36.148Z,8.93
2022-11-23T06:59:21.584Z,8.95
2022-11-23T07:02:07.068Z,8.65
2022-11-23T07:04:54.954Z,8.90
2022-11-23T07:07:40.472Z,8.48
2022-11-23T07:10:32.902Z,8.40
2022-11-23T07:13:19.637Z,7.55
2022-11-23T07:16:05.898Z,7.22
2022-11-23T07:18:51.728Z,6.93
2022-11-23T07:21:37.133Z,6.82
2022-11-23T07:24:22.628Z,6.80
2022-11-23T07:27:08.088Z,6.47
2022-11-23T07:29:53.923Z,6.30
2022-11-23T07:32:39.255Z,6.45
2022-11-23T07:35:24.839Z,6.32
2022-11-23T07:38:10.731Z,6.53
2022-11-23T07:40:56.587Z,6.20
2022-11-23T07:43:57.839Z,6.70
2022-11-23T07:46:43.339Z,6.40
2022-11-23T07:49:28.465Z,5.90
2022-11-23T07:52:13.708Z,5.75
2022-11-23T07:55:00.778Z,5.25
2022-11-23T07:57:45.990Z,4.82
2022-11-23T08:00:31.379Z,4.95
2022-11-23T08:03:32.357Z,4.85
2022-11-23T08:06:17.728Z,4.10
2022-11-23T08:09:03.161Z,4.00
2022-11-23T08:11:48.640Z,3.50
2022-11-23T08:14:34.367Z,3.22
2022-11-23T08:17:19.963Z,2.63
2022-11-23T08:20:05.771Z,2.70
2022-11-23T08:22:51.114Z,2.33
2022-11-23T08:25:36.453Z,2.17
2022-11-23T08:28:22.085Z,2.20
2022-11-23T08:31:09.045Z,1.92
2022-11-23T08:33:57.622Z,1.98
2022-11-23T08:36:45.790Z,2.72
2022-11-23T08:39:31.267Z,2.72
2022-11-23T08:42:16.575Z,2.20
2022-11-23T08:45:04.176Z,2.08
2022-11-23T08:47:50.909Z,2.42
2022-11-23T08:50:37.041Z,2.20
2022-11-23T08:53:22.419Z,2.70
2022-11-23T08:56:08.251Z,1.77
2022-11-23T08:58:53.651Z,2.60
2022-11-23T09:01:38.882Z,1.77
2022-11-23T09:04:24.481Z,1.98
2022-11-23T09:07:09.652Z,2.00
2022-11-23T09:09:55.051Z,2.10
2022-11-23T09:12:40.410Z,2.05
2022-11-23T09:15:25.918Z,2.35
2022-11-23T09:18:11.576Z,1.92
2022-11-23T09:20:57.982Z,2.00
2022-11-23T09:23:43.384Z,1.90
2022-11-23T09:26:30.464Z,2.00
2022-11-23T09:29:15.932Z,2.20
2022-11-23T09:32:02.830Z,2.10
2022-11-23T09:34:48.196Z,2.22
2022-11-23T09:37:33.679Z,2.00
2022-11-23T09:40:19.017Z,2.08
2022-11-23T09:43:17.109Z,2.20
2022-11-23T09:46:16.994Z,2.42
2022-11-23T09:49:21.714Z,2.28
2022-11-23T09:52:18.010Z,2.70
2022-11-23T09:55:07.410Z,2.90
2022-11-23T09:57:59.713Z,2.45
2022-11-23T10:00:59.152Z,2.78
2022-11-23T10:03:48.765Z,2.08
2022-11-23T10:06:40.310Z,2.97
2022-11-23T10:09:53.921Z,2.63
2022-11-23T10:12:45.168Z,2.58
2022-11-23T10:15:54.269Z,2.53
2022-11-23T10:19:09.223Z,2.25
2022-11-23T10:22:08.997Z,2.28
2022-11-23T10:24:54.729Z,2.00
2022-11-23T10:27:40.217Z,2.70
2022-11-23T10:30:25.630Z,2.40
2022-11-23T10:33:31.471Z,2.35
2022-11-23T10:36:17.127Z,2.30
2022-11-23T10:39:11.962Z,2.03
2022-11-23T10:42:03.405Z,2.33
2022-11-23T10:44:51.418Z,2.43
2022-11-23T10:47:51.616Z,2.10
2022-11-23T10:50:40.652Z,2.17
2022-11-23T10:53:30.854Z,2.55
2022-11-23T10:56:16.414Z,2.40
2022-11-23T10:59:01.903Z,2.33
2022-11-23T11:02:11.105Z,2.30
2022-11-23T11:05:46.438Z,2.30
2022-11-23T11:08:34.342Z,2.78
2022-11-23T11:11:25.551Z,2.42
2022-11-23T11:14:24.623Z,2.50
2022-11-23T11:17:26.484Z,2.70
2022-11-23T11:20:32.335Z,2.78
2022-11-23T11:23:21.563Z,2.70
2022-11-23T11:26:15.115Z,2.22
2022-11-23T11:29:03.139Z,2.40
2022-11-23T11:32:06.012Z,2.40
2022-11-23T11:35:20.769Z,2.58
2022-11-23T11:38:25.060Z,2.60
2022-11-23T11:41:14.172Z,2.15
2022-11-23T11:44:08.892Z,2.03
2022-11-23T11:47:00.120Z,2.08
2022-11-23T11:49:49.066Z,2.00
2022-11-23T11:52:39.216Z,2.55
2022-11-23T11:55:29.949Z,2.65
2022-11-23T11:58:17.869Z,2.10
2022-11-23T12:01:38.472Z,3.13
2022-11-23T12:04:43.167Z,2.33
2022-11-23T12:07:50.527Z,2.22
2022-11-23T12:10:54.664Z,1.90
2022-11-23T12:13:43.867Z,2.00
2022-11-23T12:17:31.344Z,2.00
2022-11-23T12:20:24.366Z,1.80
2022-11-23T12:23:30.234Z,1.85
2022-11-23T12:26:29.991Z,2.17
2022-11-23T12:30:09.556Z,1.60
2022-11-23T12:33:33.877Z,2.25
2022-11-23T12:36:39.615Z,1.85
2022-11-23T12:39:24.769Z,2.00
2022-11-23T12:42:44.671Z,1.88
2022-11-23T12:45:46.930Z,1.92
2022-11-23T12:48:52.906Z,2.30
2022-11-23T12:52:23.555Z,1.40
2022-11-23T12:55:29.151Z,1.20
2022-11-23T12:58:26.038Z,1.45
2022-11-23T13:01:47.367Z,1.42
2022-11-23T13:04:55.771Z,1.50
2022-11-23T13:07:56.668Z,1.80
2022-11-23T13:10:53.824Z,1.50
2022-11-23T13:14:04.001Z,1.55
2022-11-23T13:17:25.247Z,1.63
2022-11-23T13:20:23.707Z,1.70
2022-11-23T13:23:09.156Z,1.45
2022-11-23T13:26:15.675Z,1.80
2022-11-23T13:29:46.101Z,1.63
2022-11-23T13:32:52.655Z,1.50
2022-11-23T13:35:44.275Z,1.70
2022-11-23T13:38:37.351Z,1.30
2022-11-23T13:41:34.975Z,1.70
2022-11-23T13:44:27.177Z,1.38
2022-11-23T13:47:16.200Z,1.27
2022-11-23T13:50:18.949Z,1.45
2022-11-23T13:53:22.251Z,1.90
2022-11-23T13:56:24.468Z,1.45
2022-11-23T13:59:25.227Z,1.65
2022-11-23T14:02:10.677Z,1.55
2022-11-23T14:05:36.175Z,1.58
2022-11-23T14:08:22.587Z,1.80
2022-11-23T14:11:14.314Z,1.65
2022-11-23T14:14:03.167Z,1.52
2022-11-23T14:17:13.938Z,1.70
2022-11-23T14:20:10.883Z,1.70
2022-11-23T14:23:26.959Z,1.50
2022-11-23T14:26:21.654Z,1.70
2022-11-23T14:29:27.908Z,1.45
2022-11-23T14:32:40.875Z,1.67
2022-11-23T14:35:42.072Z,1.40
2022-11-23T14:38:45.901Z,1.50
2022-11-23T14:41:36.207Z,1.30
2022-11-23T14:44:33.059Z,1.25
2022-11-23T14:47:31.567Z,1.80
2022-11-23T14:50:21.575Z,1.45
2022-11-23T14:53:11.080Z,1.77
2022-11-23T14:55:58.208Z,1.60
2022-11-23T14:58:44.789Z,1.23
2022-11-23T15:01:31.266Z,1.48
2022-11-23T15:04:34.543Z,1.60
2022-11-23T15:07:25.180Z,1.27
2022-11-23T15:10:19.383Z,1.35
2022-11-23T15:13:26.615Z,1.33
2022-11-23T15:16:14.148Z,1.30
2022-11-23T15:18:59.889Z,1.30
2022-11-23T15:21:45.821Z,1.30
2022-11-23T15:24:31.623Z,1.50
2022-11-23T15:27:28.283Z,1.13
2022-11-23T15:30:16.389Z,1.30
2022-11-23T15:33:06.075Z,1.60
2022-11-23T15:35:53.566Z,1.77
2022-11-23T15:38:39.386Z,1.30
2022-11-23T15:41:26.849Z,1.45
2022-11-23T15:44:27.037Z,1.40
2022-11-23T15:47:23.099Z,1.73
2022-11-23T15:50:09.682Z,1.38
2022-11-23T15:52:55.116Z,1.75
2022-11-23T15:55:41.388Z,1.52
2022-11-23T15:58:27.378Z,1.42
2022-11-23T16:01:14.112Z,1.60
2022-11-23T16:04:03.717Z,1.50
2022-11-23T16:06:49.456Z,1.50
2022-11-23T16:09:52.978Z,1.85
2022-11-23T16:12:56.998Z,1.70
2022-11-23T16:15:46.247Z,1.73
2022-11-23T16:18:34.231Z,2.20
2022-11-23T16:21:20.391Z,1.90
2022-11-23T16:24:05.833Z,2.30
2022-11-23T16:26:51.584Z,2.20
2022-11-23T16:29:37.589Z,2.38
2022-11-23T16:32:32.456Z,3.00
2022-11-23T16:35:20.342Z,2.70
2022-11-23T16:38:06.260Z,2.78
2022-11-23T16:40:51.995Z,2.60
2022-11-23T16:43:37.192Z,2.75
2022-11-23T16:46:22.796Z,3.47
2022-11-23T16:49:17.263Z,3.20
2022-11-23T16:52:02.883Z,3.28
2022-11-23T16:54:49.295Z,3.10
2022-11-23T16:57:34.883Z,2.70
2022-11-23T17:00:22.407Z,2.85
2022-11-23T17:03:14.253Z,3.13
2022-11-23T17:05:59.384Z,3.25
2022-11-23T17:08:46.033Z,3.78
2022-11-23T17:11:31.098Z,3.85
2022-11-23T17:14:19.163Z,3.83
2022-11-23T17:17:05.630Z,4.00
2022-11-23T17:19:51.787Z,3.85
2022-11-23T17:22:37.232Z,4.75
2022-11-23T17:25:22.602Z,5.00
2022-11-23T17:28:15.850Z,5.00
2022-11-23T17:31:01.893Z,4.65
2022-11-23T17:33:47.406Z,5.32
2022-11-23T17:36:32.950Z,5.07
2022-11-23T17:39:24.453Z,5.63
2022-11-23T17:42:12.038Z,5.57
2022-11-23T17:44:57.549Z,5.28
2022-11-23T17:47:44.514Z,5.63
2022-11-23T17:50:29.554Z,5.40
2022-11-23T17:53:15.015Z,5.75
2022-11-23T17:56:00.550Z,5.40
2022-11-23T17:58:46.682Z,6.20
2022-11-23T18:01:31.926Z,5.90
2022-11-23T18:04:17.397Z,5.18
2022-11-23T18:07:03.386Z,6.13
2022-11-23T18:09:50.420Z,5.93
2022-11-23T18:12:36.911Z,6.20
2022-11-23T18:15:22.259Z,5.90
2022-11-23T18:18:07.550Z,5.93
2022-11-23T18:20:53.042Z,5.97
2022-11-23T18:23:38.293Z,5.35
2022-11-23T18:26:27.055Z,5.82
2022-11-23T18:29:16.863Z,5.60
2022-11-23T18:32:03.656Z,6.30
2022-11-23T18:34:49.214Z,5.88
2022-11-23T18:37:34.724Z,5.78
2022-11-23T18:40:20.702Z,5.13
2022-11-23T18:43:06.045Z,5.38
2022-11-23T18:45:51.453Z,5.65
2022-11-23T18:48:37.811Z,5.50
2022-11-23T18:51:23.443Z,6.00
2022-11-23T18:54:08.922Z,5.50
2022-11-23T18:56:54.480Z,5.70
2022-11-23T18:59:57.629Z,5.57
2022-11-23T19:02:43.850Z,5.80
2022-11-23T19:05:35.086Z,5.35
2022-11-23T19:08:20.220Z,5.53
2022-11-23T19:11:16.030Z,5.30
2022-11-23T19:14:01.528Z,5.32
2022-11-23T19:16:47.356Z,5.35
2022-11-23T19:19:32.818Z,4.88
2022-11-23T19:22:18.568Z,5.07
2022-11-23T19:25:04.534Z,4.75
2022-11-23T19:27:51.282Z,4.97
2022-11-23T19:30:36.754Z,4.88
2022-11-23T19:33:22.314Z,5.13
2022-11-23T19:36:10.070Z,5.38
2022-11-23T19:38:56.375Z,4.90
2022-11-23T19:41:41.640Z,5.88
2022-11-23T19:44:27.179Z,5.47
2022-11-23T19:47:17.544Z,5.50
2022-11-23T19:50:05.921Z,5.35
2022-11-23T19:53:11.104Z,5.50
2022-11-23T19:56:14.625Z,4.80
2022-11-23T19:59:01.257Z,4.72
2022-11-23T20:01:46.977Z,5.30
2022-11-23T20:04:32.335Z,5.38
2022-11-23T20:07:19.301Z,4.97
2022-11-23T20:10:05.154Z,5.25
2022-11-23T20:12:50.622Z,5.10
2022-11-23T20:15:35.989Z,5.07
2022-11-23T20:18:24.459Z,5.00
2022-11-23T20:21:18.838Z,5.20
2022-11-23T20:24:11.593Z,5.00
2022-11-23T20:26:57.092Z,5.22
2022-11-23T20:29:42.372Z,5.55
2022-11-23T20:32:28.029Z,5.45
2022-11-23T20:35:13.546Z,5.15
2022-11-23T20:37:59.147Z,4.97
2022-11-23T20:40:44.669Z,5.53
2022-11-23T20:43:29.667Z,5.15
2022-11-23T20:46:31.766Z,5.20
2022-11-23T20:49:21.061Z,4.90
2022-11-23T20:52:06.590Z,5.63
2022-11-23T20:54:52.219Z,5.22
2022-11-23T20:57:37.496Z,4.65
2022-11-23T21:00:23.022Z,4.90
2022-11-23T21:03:09.348Z,4.93
2022-11-23T21:05:54.640Z,4.90
2022-11-23T21:08:41.759Z,4.72
2022-11-23T21:11:47.741Z,4.82
2022-11-23T21:14:34.073Z,4.70
2022-11-23T21:17:20.190Z,4.63
2022-11-23T21:20:06.049Z,4.65
2022-11-23T21:22:52.348Z,4.50
2022-11-23T21:25:37.828Z,4.70
2022-11-23T21:28:23.191Z,3.83
2022-11-23T21:31:09.831Z,4.25
2022-11-23T21:33:55.682Z,4.07
2022-11-23T21:36:41.024Z,4.00
2022-11-23T21:39:26.697Z,4.72
2022-11-23T21:42:12.111Z,3.90
2022-11-23T21:44:57.393Z,4.20
2022-11-23T21:47:43.144Z,4.10
2022-11-23T21:50:28.332Z,5.03
2022-11-23T21:53:13.768Z,4.85
2022-11-23T21:56:11.526Z,4.70
2022-11-23T21:58:57.156Z,4.78
2022-11-23T22:01:43.107Z,6.18
2022-11-23T22:04:28.632Z,5.03
2022-11-23T22:07:14.068Z,5.38
2022-11-23T22:09:59.458Z,5.00
2022-11-23T22:12:44.950Z,4.82
2022-11-23T22:15:31.562Z,4.53
2022-11-23T22:18:16.619Z,4.82
2022-11-23T22:21:06.275Z,4.53
2022-11-23T22:23:51.699Z,4.25
2022-11-23T22:26:37.042Z,5.13
2022-11-23T22:29:22.723Z,4.07
2022-11-23T22:32:08.208Z,4.70
2022-11-23T22:34:53.699Z,4.30
2022-11-23T22:37:39.173Z,4.00
2022-11-23T22:40:24.767Z,3.92
2022-11-23T22:43:10.379Z,3.95
2022-11-23T22:46:05.408Z,4.13
2022-11-23T22:48:52.523Z,3.75
2022-11-23T22:51:38.024Z,4.05
2022-11-23T22:54:23.630Z,3.70
2022-11-23T22:57:09.166Z,3.63
2022-11-23T22:59:54.356Z,3.20
2022-11-23T23:02:39.963Z,3.58
2022-11-23T23:05:25.264Z,3.58
2022-11-23T23:08:11.019Z,3.50
2022-11-23T23:10:56.415Z,3.20
2022-11-23T23:13:41.789Z,3.15
2022-11-23T23:16:27.352Z,3.40
2022-11-23T23:19:12.881Z,4.30
2022-11-23T23:21:58.611Z,3.00
2022-11-23T23:24:45.663Z,3.22
2022-11-23T23:27:31.160Z,3.40
2022-11-23T23:30:18.149Z,3.47
2022-11-23T23:33:03.325Z,3.92
2022-11-23T23:35:48.864Z,3.05
2022-11-23T23:38:34.858Z,3.33
2022-11-23T23:41:20.421Z,3.45
2022-11-23T23:44:05.972Z,3.20
2022-11-23T23:46:51.420Z,2.78
2022-11-23T23:49:36.995Z,2.40
2022-11-23T23:52:22.532Z,3.17
2022-11-23T23:55:09.597Z,2.88
2022-11-23T23:57:54.973Z,3.08
